createdAt,value
2019-04-03T00:00:08.905Z,11.20
2019-04-03T00:02:38.389Z,11.10
2019-04-03T00:05:08.030Z,11.20
2019-04-03T00:07:37.553Z,11.20
2019-04-03T00:10:07.653Z,11.20
2019-04-03T00:12:37.395Z,11.20
2019-04-03T00:15:08.458Z,11.20
2019-04-03T00:17:40.925Z,11.10
2019-04-03T00:20:11.013Z,11.00
2019-04-03T00:22:41.259Z,11.00
2019-04-03T00:25:11.523Z,10.90
2019-04-03T00:27:41.031Z,10.90
2019-04-03T00:30:29.637Z,10.80
2019-04-03T00:32:59.104Z,10.80
2019-04-03T00:35:47.626Z,10.70
2019-04-03T00:38:36.164Z,10.70
2019-04-03T00:41:25.062Z,10.60
2019-04-03T00:43:55.842Z,10.50
2019-04-03T00:46:44.345Z,10.40
2019-04-03T00:49:32.893Z,10.40
2019-04-03T00:52:21.385Z,10.50
2019-04-03T00:54:50.881Z,10.60
2019-04-03T00:57:39.384Z,10.50
2019-04-03T01:00:48.879Z,10.50
2019-04-03T01:03:37.458Z,10.50
2019-04-03T01:06:07.388Z,10.40
2019-04-03T01:08:55.974Z,10.40
2019-04-03T01:11:46.104Z,10.30
2019-04-03T01:14:34.644Z,10.20
2019-04-03T01:20:30.652Z,10.20
2019-04-03T01:23:00.118Z,10.20
2019-04-03T01:25:29.689Z,10.20
2019-04-03T01:27:59.112Z,10.10
2019-04-03T01:30:28.567Z,10.10
2019-04-03T01:33:17.234Z,10.10
2019-04-03T01:35:47.483Z,10.00
2019-04-03T01:38:36.841Z,9.90
2019-04-03T01:41:25.333Z,9.80
2019-04-03T01:44:13.857Z,9.80
2019-04-03T01:47:02.351Z,9.70
2019-04-03T01:49:31.852Z,9.60
2019-04-03T01:55:08.268Z,9.40
2019-04-03T01:57:37.727Z,9.30
2019-04-03T02:00:26.265Z,9.30
2019-04-03T02:03:09.855Z,9.30
2019-04-03T02:05:38.842Z,9.20
2019-04-03T02:08:27.334Z,9.10
2019-04-03T02:11:18.084Z,9.10
2019-04-03T02:13:46.996Z,9.10
2019-04-03T02:16:35.480Z,9.10
2019-04-03T02:19:25.860Z,9.00
2019-04-03T02:22:14.364Z,9.00
2019-04-03T02:24:43.906Z,9.00
2019-04-03T02:27:33.306Z,8.90
2019-04-03T02:30:22.587Z,8.90
2019-04-03T02:33:11.061Z,8.90
2019-04-03T02:35:41.034Z,8.90
2019-04-03T02:38:29.794Z,8.90
2019-04-03T02:41:18.282Z,8.90
2019-04-03T02:44:06.767Z,8.90
2019-04-03T02:46:36.249Z,8.80
2019-04-03T02:49:24.761Z,8.80
2019-04-03T02:51:54.374Z,8.80
2019-04-03T02:54:29.721Z,8.70
2019-04-03T02:57:18.523Z,8.70
2019-04-03T02:59:47.990Z,8.60
2019-04-03T03:02:29.654Z,8.70
2019-04-03T03:05:11.383Z,8.70
2019-04-03T03:07:41.378Z,8.70
2019-04-03T03:10:10.985Z,8.70
2019-04-03T03:12:41.092Z,8.70
2019-04-03T03:15:31.249Z,8.60
2019-04-03T03:18:19.853Z,8.60
2019-04-03T03:21:12.847Z,8.60
2019-04-03T03:23:41.826Z,8.60
2019-04-03T03:29:26.991Z,8.50
2019-04-03T03:34:50.916Z,8.50
2019-04-03T03:37:23.032Z,8.60
2019-04-03T03:40:15.414Z,8.60
2019-04-03T03:45:38.441Z,8.60
2019-04-03T03:48:27.400Z,8.60
2019-04-03T03:51:16.024Z,8.70
2019-04-03T03:57:37.990Z,8.80
2019-04-03T04:00:24.804Z,8.80
2019-04-03T04:03:09.396Z,8.80
2019-04-03T04:05:37.660Z,8.90
2019-04-03T04:08:26.357Z,8.90
2019-04-03T04:11:14.978Z,8.70
2019-04-03T04:14:03.995Z,8.80
2019-04-03T04:16:52.762Z,8.80
2019-04-03T04:19:41.261Z,8.70
2019-04-03T04:22:29.789Z,8.70
2019-04-03T04:25:18.773Z,8.60
2019-04-03T04:28:09.281Z,8.60
2019-04-03T04:30:38.473Z,8.60
2019-04-03T04:33:07.949Z,8.60
2019-04-03T04:35:37.586Z,8.60
2019-04-03T04:38:26.818Z,8.60
2019-04-03T04:40:56.572Z,8.50
2019-04-03T04:43:26.060Z,8.50
2019-04-03T04:46:14.583Z,8.50
2019-04-03T04:49:03.077Z,8.40
2019-04-03T04:51:32.582Z,8.40
2019-04-03T04:54:02.032Z,8.30
2019-04-03T04:56:31.528Z,8.30
2019-04-03T04:59:20.128Z,8.30
2019-04-03T05:01:49.677Z,8.30
2019-04-03T05:04:31.098Z,8.30
2019-04-03T05:07:11.992Z,8.40
2019-04-03T05:09:41.487Z,8.40
2019-04-03T05:12:30.049Z,8.40
2019-04-03T05:14:59.532Z,8.50
2019-04-03T05:17:29.018Z,8.50
2019-04-03T05:20:19.478Z,8.50
2019-04-03T05:23:07.695Z,8.60
2019-04-03T05:25:37.187Z,8.50
2019-04-03T05:28:25.817Z,8.60
2019-04-03T05:31:14.338Z,8.60
2019-04-03T05:37:11.617Z,8.70
2019-04-03T05:39:41.811Z,8.70
2019-04-03T05:42:30.544Z,8.70
2019-04-03T05:45:00.196Z,8.80
2019-04-03T05:47:48.857Z,8.80
2019-04-03T05:50:37.328Z,8.70
2019-04-03T05:53:07.062Z,8.90
2019-04-03T05:55:55.544Z,8.80
2019-04-03T05:58:54.431Z,8.90
2019-04-03T06:04:10.536Z,8.90
2019-04-03T06:06:59.930Z,9.10
2019-04-03T06:09:49.404Z,9.10
2019-04-03T06:12:30.791Z,9.20
2019-04-03T06:15:00.258Z,9.30
2019-04-03T06:17:50.239Z,9.40
2019-04-03T06:23:46.832Z,9.60
2019-04-03T06:29:07.186Z,9.80
2019-04-03T06:31:35.886Z,9.80
2019-04-03T06:34:07.642Z,9.90
2019-04-03T06:36:36.626Z,9.90
2019-04-03T06:39:07.891Z,10.00
2019-04-03T06:41:37.447Z,10.10
2019-04-03T06:44:06.827Z,10.10
2019-04-03T06:46:36.543Z,10.20
2019-04-03T06:49:08.408Z,10.20
2019-04-03T06:51:37.340Z,10.20
2019-04-03T06:54:08.086Z,10.30
2019-04-03T06:56:39.988Z,10.30
2019-04-03T06:59:09.034Z,10.40
2019-04-03T07:01:38.484Z,10.50
2019-04-03T07:04:07.997Z,10.70
2019-04-03T07:06:37.497Z,10.80
2019-04-03T07:09:21.328Z,10.90
2019-04-03T07:11:39.273Z,11.00
2019-04-03T07:14:09.086Z,11.10
2019-04-03T07:16:38.949Z,11.10
2019-04-03T07:19:08.661Z,11.10
2019-04-03T07:21:38.494Z,11.10
2019-04-03T07:24:07.960Z,11.30
2019-04-03T07:26:37.469Z,11.40
2019-04-03T07:29:06.924Z,11.60
2019-04-03T07:34:11.485Z,12.00
2019-04-03T07:36:42.955Z,12.10
2019-04-03T07:39:12.145Z,12.30
2019-04-03T07:41:41.715Z,12.40
2019-04-03T07:44:12.163Z,12.50
2019-04-03T07:46:41.547Z,12.50
2019-04-03T07:49:13.776Z,12.50
2019-04-03T07:51:43.314Z,12.60
2019-04-03T07:54:13.341Z,12.90
2019-04-03T07:56:42.800Z,13.00
2019-04-03T07:59:12.802Z,13.00
2019-04-03T08:01:42.413Z,12.90
2019-04-03T08:04:15.327Z,12.80
2019-04-03T08:06:43.469Z,12.90
2019-04-03T08:09:12.966Z,12.90
2019-04-03T08:11:42.446Z,12.90
2019-04-03T08:14:12.309Z,13.10
2019-04-03T08:16:43.194Z,13.00
2019-04-03T08:19:12.774Z,13.20
2019-04-03T08:21:42.305Z,13.30
2019-04-03T08:24:11.954Z,13.40
2019-04-03T08:26:41.397Z,13.50
2019-04-03T08:29:10.873Z,13.60
2019-04-03T08:31:42.735Z,13.50
2019-04-03T08:34:17.351Z,13.70
2019-04-03T08:36:42.714Z,13.90
2019-04-03T08:39:13.701Z,14.10
2019-04-03T08:41:43.277Z,14.10
2019-04-03T08:44:12.772Z,14.30
2019-04-03T08:46:43.918Z,14.50
2019-04-03T08:49:13.528Z,14.30
2019-04-03T08:51:43.318Z,14.30
2019-04-03T08:54:12.912Z,14.40
2019-04-03T08:56:42.396Z,14.40
2019-04-03T08:59:13.567Z,14.20
2019-04-03T09:01:42.996Z,14.40
2019-04-03T09:04:12.692Z,14.40
2019-04-03T09:06:42.175Z,14.20
2019-04-03T09:09:12.088Z,14.40
2019-04-03T09:11:41.557Z,14.40
2019-04-03T09:14:11.041Z,14.30
2019-04-03T09:16:40.485Z,14.40
2019-04-03T09:19:10.831Z,14.80
2019-04-03T09:21:40.325Z,15.00
2019-04-03T09:24:09.800Z,14.60
2019-04-03T09:26:39.268Z,14.70
2019-04-03T09:29:08.718Z,14.80
2019-04-03T09:31:38.187Z,14.70
2019-04-03T09:34:07.888Z,14.80
2019-04-03T09:36:37.445Z,15.00
2019-04-03T09:39:14.230Z,15.00
2019-04-03T09:41:42.488Z,14.90
2019-04-03T09:44:12.299Z,14.90
2019-04-03T09:46:44.468Z,14.90
2019-04-03T09:49:13.090Z,15.00
2019-04-03T09:51:42.822Z,15.10
2019-04-03T09:54:12.566Z,15.40
2019-04-03T09:56:56.490Z,15.40
2019-04-03T09:59:15.453Z,15.40
2019-04-03T10:01:47.117Z,15.40
2019-04-03T10:04:15.375Z,15.40
2019-04-03T10:06:44.886Z,15.40
2019-04-03T10:09:14.350Z,15.40
2019-04-03T10:11:43.828Z,15.40
2019-04-03T10:14:13.276Z,15.60
2019-04-03T10:16:42.866Z,15.70
2019-04-03T10:19:13.596Z,15.60
2019-04-03T10:21:43.571Z,15.60
2019-04-03T10:24:13.206Z,15.70
2019-04-03T10:26:42.686Z,15.50
2019-04-03T10:29:12.185Z,15.60
2019-04-03T10:31:41.663Z,15.50
2019-04-03T10:34:13.572Z,15.50
2019-04-03T10:36:43.405Z,15.50
2019-04-03T10:39:13.719Z,15.80
2019-04-03T10:41:43.178Z,15.90
2019-04-03T10:44:12.985Z,15.80
2019-04-03T10:46:42.437Z,15.90
2019-04-03T10:49:11.892Z,15.90
2019-04-03T10:51:42.051Z,15.50
2019-04-03T10:54:11.573Z,15.90
2019-04-03T10:56:41.026Z,16.10
2019-04-03T10:59:13.589Z,16.10
2019-04-03T11:01:41.626Z,15.90
2019-04-03T11:04:11.125Z,16.10
2019-04-03T11:06:40.593Z,16.00
2019-04-03T11:09:10.374Z,16.30
2019-04-03T11:11:42.558Z,16.40
2019-04-03T11:14:10.978Z,16.60
2019-04-03T11:16:40.624Z,16.80
2019-04-03T11:19:10.229Z,16.70
2019-04-03T11:21:39.817Z,16.80
2019-04-03T11:24:09.261Z,16.50
2019-04-03T11:26:38.749Z,16.40
2019-04-03T11:29:10.011Z,16.70
2019-04-03T11:31:41.992Z,16.70
2019-04-03T11:34:10.585Z,16.70
2019-04-03T11:36:41.841Z,16.70
2019-04-03T11:39:15.201Z,17.00
2019-04-03T11:41:42.414Z,17.20
2019-04-03T11:44:11.865Z,17.50
2019-04-03T11:46:41.340Z,17.30
2019-04-03T11:49:10.890Z,17.40
2019-04-03T11:51:40.644Z,17.40
2019-04-03T11:54:10.118Z,17.80
2019-04-03T11:56:39.587Z,17.90
2019-04-03T11:59:09.042Z,18.20
2019-04-03T12:01:38.775Z,18.00
2019-04-03T12:04:08.192Z,18.30
2019-04-03T12:06:37.792Z,18.60
2019-04-03T12:09:08.873Z,18.90
2019-04-03T12:11:39.308Z,18.70
2019-04-03T12:14:09.625Z,18.50
2019-04-03T12:16:39.234Z,18.60
2019-04-03T12:19:09.198Z,18.70
2019-04-03T12:21:38.668Z,19.00
2019-04-03T12:24:08.488Z,18.70
2019-04-03T12:26:38.029Z,19.30
2019-04-03T12:29:10.317Z,19.10
2019-04-03T12:31:40.063Z,18.80
2019-04-03T12:34:09.582Z,19.10
2019-04-03T12:36:39.283Z,19.30
2019-04-03T12:39:14.271Z,19.30
2019-04-03T12:41:44.156Z,19.00
2019-04-03T12:44:13.597Z,19.30
2019-04-03T12:46:43.076Z,19.40
2019-04-03T12:49:12.802Z,19.20
2019-04-03T12:51:42.360Z,19.60
2019-04-03T12:54:13.367Z,19.10
2019-04-03T12:56:42.887Z,19.50
2019-04-03T12:59:12.866Z,19.80
2019-04-03T13:01:42.340Z,19.50
2019-04-03T13:04:12.202Z,19.40
2019-04-03T13:06:42.383Z,19.80
2019-04-03T13:09:12.523Z,19.80
2019-04-03T13:11:42.344Z,20.00
2019-04-03T13:14:22.622Z,20.40
2019-04-03T13:16:45.169Z,20.40
2019-04-03T13:19:16.009Z,20.50
2019-04-03T13:21:45.161Z,20.90
2019-04-03T13:24:17.103Z,20.40
2019-04-03T13:26:45.964Z,20.60
2019-04-03T13:29:15.432Z,20.70
2019-04-03T13:31:47.062Z,21.00
2019-04-03T13:34:16.575Z,21.00
2019-04-03T13:36:46.032Z,21.30
2019-04-03T13:39:15.597Z,21.60
2019-04-03T13:41:45.068Z,21.60
2019-04-03T13:44:14.541Z,22.10
2019-04-03T13:49:19.176Z,21.70
2019-04-03T13:51:49.179Z,21.70
2019-04-03T13:54:18.639Z,21.20
2019-04-03T13:56:48.113Z,21.20
2019-04-03T13:59:17.726Z,21.20
2019-04-03T14:01:52.204Z,21.20
2019-04-03T14:04:22.915Z,21.10
2019-04-03T14:06:53.078Z,20.90
2019-04-03T14:09:22.821Z,20.70
2019-04-03T14:11:52.525Z,20.30
2019-04-03T14:14:22.432Z,20.00
2019-04-03T14:16:51.904Z,19.90
2019-04-03T14:19:24.292Z,20.40
2019-04-03T14:21:52.522Z,20.60
2019-04-03T14:24:22.092Z,21.10
2019-04-03T14:26:51.545Z,21.20
2019-04-03T14:29:21.321Z,21.00
2019-04-03T14:31:50.892Z,20.40
2019-04-03T14:34:20.353Z,20.20
2019-04-03T14:36:50.494Z,19.80
2019-04-03T14:39:20.528Z,19.80
2019-04-03T14:41:53.314Z,19.60
2019-04-03T14:44:21.858Z,19.80
2019-04-03T14:46:51.732Z,19.90
2019-04-03T14:49:21.525Z,20.00
2019-04-03T14:51:50.965Z,20.00
2019-04-03T14:54:21.991Z,20.10
2019-04-03T14:56:52.384Z,20.00
2019-04-03T14:59:21.867Z,20.00
2019-04-03T15:01:52.310Z,19.70
2019-04-03T15:04:22.084Z,19.70
2019-04-03T15:07:01.492Z,19.80
2019-04-03T15:09:24.226Z,19.80
2019-04-03T15:11:53.796Z,19.70
2019-04-03T15:14:23.615Z,20.00
2019-04-03T15:16:53.052Z,20.10
2019-04-03T15:19:22.604Z,20.20
2019-04-03T15:21:52.333Z,20.40
2019-04-03T15:24:21.831Z,20.00
2019-04-03T15:26:53.457Z,20.10
2019-04-03T15:29:23.021Z,20.00
2019-04-03T15:31:52.588Z,20.00
2019-04-03T15:34:22.146Z,19.90
2019-04-03T15:36:51.726Z,20.00
2019-04-03T15:39:21.551Z,19.80
2019-04-03T15:41:51.017Z,19.50
2019-04-03T15:44:21.518Z,19.40
2019-04-03T15:46:51.784Z,19.40
2019-04-03T15:49:21.280Z,19.40
2019-04-03T15:51:50.765Z,19.30
2019-04-03T15:54:20.397Z,19.40
2019-04-03T15:56:49.801Z,19.30
2019-04-03T15:59:19.658Z,19.30
2019-04-03T16:01:49.305Z,19.20
2019-04-03T16:04:18.757Z,19.10
2019-04-03T16:06:52.288Z,19.10
2019-04-03T16:09:21.741Z,19.20
2019-04-03T16:11:51.964Z,19.20
2019-04-03T16:14:21.416Z,19.30
2019-04-03T16:16:51.283Z,19.40
2019-04-03T16:19:20.748Z,19.30
2019-04-03T16:21:50.582Z,19.20
2019-04-03T16:24:20.030Z,19.40
2019-04-03T16:26:49.527Z,19.60
2019-04-03T16:29:19.108Z,19.40
2019-04-03T16:31:48.625Z,19.40
2019-04-03T16:34:18.541Z,19.30
2019-04-03T16:36:49.581Z,19.30
2019-04-03T16:39:19.386Z,19.10
2019-04-03T16:41:48.831Z,19.00
2019-04-03T16:44:18.291Z,19.00
2019-04-03T16:46:47.820Z,19.00
2019-04-03T16:49:17.287Z,18.90
2019-04-03T16:51:46.783Z,18.90
2019-04-03T16:54:16.667Z,19.00
2019-04-03T16:56:46.998Z,18.80
2019-04-03T16:59:17.231Z,18.70
2019-04-03T17:01:47.053Z,18.60
2019-04-03T17:04:24.954Z,18.50
2019-04-03T17:06:49.122Z,18.50
2019-04-03T17:09:18.952Z,18.40
2019-04-03T17:11:49.245Z,18.40
2019-04-03T17:14:19.445Z,18.30
2019-04-03T17:16:48.992Z,18.30
2019-04-03T17:19:18.909Z,18.20
2019-04-03T17:21:48.352Z,18.20
2019-04-03T17:24:18.773Z,18.10
2019-04-03T17:26:53.924Z,18.10
2019-04-03T17:29:19.586Z,18.10
2019-04-03T17:31:49.375Z,18.00
2019-04-03T17:34:18.845Z,18.00
2019-04-03T17:36:50.074Z,17.90
2019-04-03T17:39:19.435Z,17.80
2019-04-03T17:41:48.918Z,17.70
2019-04-03T17:44:18.388Z,17.60
2019-04-03T17:46:49.381Z,17.50
2019-04-03T17:49:18.903Z,17.40
2019-04-03T17:51:48.362Z,17.40
2019-04-03T17:54:17.845Z,17.30
2019-04-03T17:56:47.287Z,17.20
2019-04-03T17:59:18.296Z,17.10
2019-04-03T18:01:47.887Z,17.00
2019-04-03T18:04:20.068Z,17.00
2019-04-03T18:06:48.493Z,17.00
2019-04-03T18:09:18.023Z,16.90
2019-04-03T18:11:47.636Z,16.90
2019-04-03T18:14:17.201Z,16.80
2019-04-03T18:16:46.677Z,16.70
2019-04-03T18:19:16.169Z,16.60
2019-04-03T18:21:46.884Z,16.50
2019-04-03T18:24:16.825Z,16.60
2019-04-03T18:26:46.304Z,16.60
2019-04-03T18:29:15.772Z,15.80
2019-04-03T18:31:45.364Z,14.70
2019-04-03T18:34:14.822Z,13.80
2019-04-03T18:36:44.273Z,13.30
2019-04-03T18:39:13.887Z,12.70
2019-04-03T18:41:43.356Z,12.20
2019-04-03T18:44:22.077Z,11.60
2019-04-03T18:46:43.934Z,11.20
2019-04-03T18:49:13.435Z,11.00
2019-04-03T18:51:42.885Z,10.80
2019-04-03T18:54:12.360Z,10.70
2019-04-03T18:56:41.848Z,10.40
2019-04-03T18:59:11.332Z,10.00
2019-04-03T19:01:40.797Z,9.60
2019-04-03T19:04:10.256Z,9.40
2019-04-03T19:06:39.768Z,9.20
2019-04-03T19:09:10.302Z,9.00
2019-04-03T19:11:40.889Z,8.90
2019-04-03T19:14:11.145Z,8.90
2019-04-03T19:16:45.122Z,8.90
2019-04-03T19:19:11.756Z,8.90
2019-04-03T19:21:41.211Z,8.80
2019-04-03T19:24:10.689Z,8.70
2019-04-03T19:26:40.138Z,8.70
2019-04-03T19:29:09.612Z,8.70
2019-04-03T19:31:40.191Z,8.60
2019-04-03T19:34:10.183Z,8.40
2019-04-03T19:36:43.063Z,8.30
2019-04-03T19:39:12.464Z,8.20
2019-04-03T19:41:42.734Z,8.10
2019-04-03T19:44:12.701Z,8.20
2019-04-03T19:46:42.190Z,8.20
2019-04-03T19:49:11.642Z,8.10
2019-04-03T19:51:41.140Z,8.10
2019-04-03T19:54:10.594Z,8.10
2019-04-03T19:56:40.069Z,8.00
2019-04-03T19:59:09.524Z,7.80
2019-04-03T20:01:39.500Z,7.70
2019-04-03T20:04:09.037Z,7.60
2019-04-03T20:06:38.493Z,7.60
2019-04-03T20:09:09.619Z,7.60
2019-04-03T20:11:39.069Z,7.60
2019-04-03T20:14:11.188Z,7.50
2019-04-03T20:16:39.677Z,7.50
2019-04-03T20:19:09.167Z,7.50
2019-04-03T20:21:38.609Z,7.50
2019-04-03T20:24:08.089Z,7.20
2019-04-03T20:26:37.534Z,7.20
2019-04-03T20:29:07.051Z,7.10
2019-04-03T20:31:36.530Z,7.00
2019-04-03T20:34:06.004Z,7.00
2019-04-03T20:36:35.568Z,6.90
2019-04-03T20:39:07.815Z,6.80
2019-04-03T20:41:37.369Z,6.80
2019-04-03T20:44:06.855Z,6.70
2019-04-03T20:46:36.301Z,6.60
2019-04-03T20:49:05.780Z,6.70
2019-04-03T20:51:35.223Z,6.60
2019-04-03T20:54:04.711Z,6.60
2019-04-03T20:56:34.334Z,6.50
2019-04-03T20:59:03.836Z,6.50
2019-04-03T21:01:35.263Z,6.40
2019-04-03T21:04:04.363Z,6.50
2019-04-03T21:06:33.882Z,6.50
2019-04-03T21:09:04.923Z,6.60
2019-04-03T21:11:34.938Z,6.50
2019-04-03T21:14:05.826Z,6.50
2019-04-03T21:16:35.396Z,6.40
2019-04-03T21:19:04.884Z,6.50
2019-04-03T21:21:34.328Z,6.50
2019-04-03T21:24:04.016Z,6.50
2019-04-03T21:26:34.070Z,6.50
2019-04-03T21:29:03.551Z,6.50
2019-04-03T21:31:32.996Z,6.50
2019-04-03T21:34:02.498Z,6.50
2019-04-03T21:36:31.967Z,6.50
2019-04-03T21:39:01.441Z,6.40
2019-04-03T21:41:30.954Z,6.40
2019-04-03T21:44:00.537Z,6.40
2019-04-03T21:46:30.069Z,6.40
2019-04-03T21:48:59.507Z,6.40
2019-04-03T21:51:28.996Z,6.40
2019-04-03T21:53:58.433Z,6.50
2019-04-03T21:56:27.989Z,6.50
2019-04-03T21:58:57.431Z,6.50
2019-04-03T22:01:27.504Z,6.50
2019-04-03T22:03:56.991Z,6.50
2019-04-03T22:06:27.570Z,6.40
2019-04-03T22:08:59.691Z,6.30
2019-04-03T22:11:28.426Z,6.20
2019-04-03T22:13:57.896Z,6.30
2019-04-03T22:16:27.369Z,6.30
2019-04-03T22:18:56.933Z,6.20
2019-04-03T22:21:26.386Z,6.20
2019-04-03T22:23:55.825Z,6.20
2019-04-03T22:26:25.304Z,6.10
2019-04-03T22:28:54.750Z,6.10
2019-04-03T22:31:24.232Z,6.20
2019-04-03T22:33:53.702Z,6.20
2019-04-03T22:36:23.172Z,6.20
2019-04-03T22:38:52.624Z,6.30
2019-04-03T22:41:22.113Z,6.30
2019-04-03T22:43:51.552Z,6.20
2019-04-03T22:46:21.987Z,6.20
2019-04-03T22:48:52.115Z,6.20
2019-04-03T22:51:21.642Z,6.10
2019-04-03T22:53:51.037Z,6.10
2019-04-03T22:56:20.489Z,6.10
2019-04-03T22:58:52.540Z,6.10
2019-04-03T23:01:21.065Z,6.10
2019-04-03T23:03:50.747Z,6.00
2019-04-03T23:06:20.205Z,6.10
2019-04-03T23:08:49.652Z,6.00
2019-04-03T23:11:19.160Z,6.00
2019-04-03T23:13:48.670Z,6.00
2019-04-03T23:16:18.169Z,6.00
2019-04-03T23:18:47.637Z,6.00
2019-04-03T23:21:17.169Z,6.00
2019-04-03T23:23:46.652Z,6.10
2019-04-03T23:26:16.164Z,6.10
2019-04-03T23:28:45.640Z,6.00
2019-04-03T23:31:15.223Z,6.00
2019-04-03T23:33:47.548Z,6.00
2019-04-03T23:36:15.952Z,6.00
2019-04-03T23:38:45.460Z,5.90
2019-04-03T23:41:14.930Z,6.00
2019-04-03T23:43:44.427Z,6.00
2019-04-03T23:46:14.717Z,6.00
2019-04-03T23:48:48.912Z,5.80
2019-04-03T23:51:23.333Z,5.90
2019-04-03T23:53:49.809Z,5.80
2019-04-03T23:56:19.278Z,5.90
2019-04-03T23:58:48.764Z,5.70
